Time;durP1;ratioP1;P1;durP2;ratioP2;P2;SDS_P1;SDS_P2;PMS_P1;PMS_P2;Temp;Humidity;BMP_temperature;BMP_pressure;BME280_temperature;BME280_humidity;BME280_pressure;Samples;Min_cycle;Max_cycle;Signal;HPM_P1;HPM_P2
2024/01/08 00:00:05;;;;;;;4.15;1.92;;;;;;;-1.83;100.00;99258.50;5024255;28;20079;-80
2024/01/08 00:02:30;;;;;;;3.92;1.60;;;;;;;-1.69;100.00;99281.34;5031235;28;20041;-80
2024/01/08 00:04:55;;;;;;;4.97;1.92;;;;;;;-1.72;100.00;99278.91;5021400;28;20086;-81
2024/01/08 00:07:21;;;;;;;2.85;1.58;;;;;;;-1.74;100.00;99272.88;5037465;28;20034;-83
2024/01/08 00:09:46;;;;;;;2.70;1.63;;;;;;;-1.74;100.00;99273.72;5038526;28;20103;-80
2024/01/08 00:12:11;;;;;;;3.35;1.92;;;;;;;-1.88;100.00;99256.19;5018952;28;20040;-80
2024/01/08 00:14:38;;;;;;;3.78;1.60;;;;;;;-1.81;100.00;99264.50;5021796;28;20029;-80
2024/01/08 00:17:04;;;;;;;4.57;2.10;;;;;;;-1.83;100.00;99269.94;5018484;28;20113;-80
2024/01/08 00:19:30;;;;;;;3.40;1.67;;;;;;;-1.86;100.00;99271.97;5020271;28;20378;-80
2024/01/08 00:21:55;;;;;;;3.92;1.85;;;;;;;-1.82;100.00;99266.31;5018548;28;20022;-80
2024/01/08 00:24:20;;;;;;;3.05;1.88;;;;;;;-1.86;100.00;99266.66;5041179;28;20089;-80
2024/01/08 00:26:46;;;;;;;3.28;1.92;;;;;;;-1.72;100.00;99277.09;5034976;28;20021;-80
2024/01/08 00:29:11;;;;;;;2.63;1.60;;;;;;;-1.89;100.00;99258.94;5021866;28;20067;-80
2024/01/08 00:31:36;;;;;;;2.97;1.83;;;;;;;-1.79;100.00;99260.78;5017815;28;20475;-80
2024/01/08 00:34:01;;;;;;;3.50;1.92;;;;;;;-1.73;100.00;99267.44;5045927;28;20408;-80
2024/01/08 00:36:27;;;;;;;4.40;2.08;;;;;;;-1.66;100.00;99275.81;5021971;28;20033;-81
2024/01/08 00:38:53;;;;;;;7.13;2.13;;;;;;;-1.72;100.00;99273.63;5040923;28;20053;-80
2024/01/08 00:41:19;;;;;;;3.45;2.00;;;;;;;-1.79;100.00;99268.75;5039963;28;20037;-80
2024/01/08 00:43:44;;;;;;;3.88;2.10;;;;;;;-1.73;100.00;99278.06;5027958;28;20025;-80
2024/01/08 00:46:09;;;;;;;4.90;2.30;;;;;;;-1.74;100.00;99281.69;5037007;28;20069;-80
2024/01/08 00:48:34;;;;;;;4.30;2.28;;;;;;;-1.70;100.00;99280.50;5036445;28;20037;-80
2024/01/08 00:51:00;;;;;;;3.42;1.88;;;;;;;-1.75;100.00;99274.69;5015255;28;20032;-80
2024/01/08 00:53:25;;;;;;;6.22;2.25;;;;;;;-1.76;100.00;99280.94;5019367;28;20486;-80
2024/01/08 00:55:50;;;;;;;3.75;2.08;;;;;;;-1.76;100.00;99267.66;5041517;28;20105;-80
2024/01/08 00:58:16;;;;;;;4.18;2.25;;;;;;;-1.73;100.00;99277.22;5023314;28;20501;-80
2024/01/08 01:00:41;;;;;;;6.75;2.35;;;;;;;-1.74;100.00;99281.69;5020987;28;20115;-79
2024/01/08 01:03:06;;;;;;;3.60;2.40;;;;;;;-1.65;100.00;99277.47;5016506;28;20464;-80
2024/01/08 01:05:32;;;;;;;3.15;2.13;;;;;;;-1.60;100.00;99283.28;5034492;28;20032;-80
2024/01/08 01:07:57;;;;;;;3.65;2.35;;;;;;;-1.75;100.00;99258.78;5038315;28;20033;-80
2024/01/08 01:10:22;;;;;;;3.85;2.17;;;;;;;-1.61;100.00;99281.63;5032122;28;20018;-80
2024/01/08 01:12:47;;;;;;;5.85;2.25;;;;;;;-1.63;100.00;99272.91;5035175;28;20032;-80
2024/01/08 01:15:13;;;;;;;4.07;2.38;;;;;;;-1.67;100.00;99272.31;5022611;28;20056;-80
2024/01/08 01:17:38;;;;;;;5.85;2.53;;;;;;;-1.62;100.00;99267.50;5036190;28;20029;-80
2024/01/08 01:20:04;;;;;;;3.92;2.00;;;;;;;-1.65;100.00;99269.53;5031235;28;20025;-80
2024/01/08 01:22:29;;;;;;;3.65;2.20;;;;;;;-1.65;100.00;99267.75;5021608;28;20035;-80
2024/01/08 01:24:55;;;;;;;3.83;2.08;;;;;;;-1.75;100.00;99264.09;5019078;28;20017;-80
2024/01/08 01:27:20;;;;;;;4.05;2.25;;;;;;;-1.61;100.00;99286.91;5016800;28;20021;-80
2024/01/08 01:29:45;;;;;;;2.90;1.77;;;;;;;-1.72;100.00;99263.84;5018830;28;20029;-79
2024/01/08 01:32:11;;;;;;;3.75;2.20;;;;;;;-1.74;100.00;99264.91;5039215;28;20130;-79
2024/01/08 01:34:37;;;;;;;3.13;2.08;;;;;;;-1.61;100.00;99287.75;5040670;28;20037;-79
2024/01/08 01:37:03;;;;;;;3.70;1.90;;;;;;;-1.59;100.00;99291.16;5009709;28;20022;-79
2024/01/08 01:39:29;;;;;;;3.90;2.25;;;;;;;-1.75;100.00;99268.53;5020101;28;20053;-80
2024/01/08 01:41:54;;;;;;;3.65;2.33;;;;;;;-1.65;100.00;99291.63;5034555;28;20083;-79
2024/01/08 01:44:20;;;;;;;3.20;2.20;;;;;;;-1.66;100.00;99292.56;5016866;28;20029;-80
2024/01/08 01:46:48;;;;;;;5.10;2.53;;;;;;;-1.66;100.00;99287.25;5018310;28;20103;-79
2024/01/08 01:49:16;;;;;;;3.50;2.23;;;;;;;-1.73;100.00;99280.69;5031644;28;20029;-79
2024/01/08 01:51:43;;;;;;;4.60;2.42;;;;;;;-1.71;100.00;99280.59;5032668;28;20346;-80
2024/01/08 01:54:18;;;;;;;3.00;2.10;;;;;;;-1.70;100.00;99292.88;5012154;28;20028;-79
2024/01/08 01:56:46;;;;;;;3.25;1.83;;;;;;;-1.69;100.00;99286.66;5014155;28;20108;-79
2024/01/08 01:59:15;;;;;;;3.25;1.65;;;;;;;-1.61;100.00;99295.72;5006924;28;20022;-80
2024/01/08 02:01:40;;;;;;;5.07;2.50;;;;;;;-1.65;100.00;99291.63;5031083;28;20033;-80
2024/01/08 02:04:06;;;;;;;4.22;2.47;;;;;;;-1.64;100.00;99274.72;5036398;28;20117;-80
2024/01/08 02:06:35;;;;;;;3.95;1.85;;;;;;;-1.66;100.00;99286.41;5032709;28;20032;-80
2024/01/08 02:09:02;;;;;;;4.15;2.45;;;;;;;-1.67;100.00;99280.28;5032672;28;20142;-79
2024/01/08 02:11:28;;;;;;;5.72;2.10;;;;;;;-1.62;100.00;99288.72;5014639;28;20025;-80
2024/01/08 02:13:54;;;;;;;2.90;2.00;;;;;;;-1.70;100.00;99280.50;5022666;28;20101;-79
2024/01/08 02:16:19;;;;;;;4.78;2.08;;;;;;;-1.73;100.00;99256.81;5018090;28;20069;-80
2024/01/08 02:18:44;;;;;;;3.67;1.90;;;;;;;-1.64;100.00;99290.66;5017363;28;20029;-79
2024/01/08 02:21:10;;;;;;;4.60;2.58;;;;;;;-1.74;100.00;99256.97;5037844;28;20057;-79
2024/01/08 02:23:35;;;;;;;7.07;2.55;;;;;;;-1.67;100.00;99261.69;5018146;28;20067;-80
2024/01/08 02:26:00;;;;;;;4.15;2.10;;;;;;;-1.60;100.00;99273.56;5020664;28;20016;-80
2024/01/08 02:28:26;;;;;;;6.82;2.40;;;;;;;-1.72;100.00;99247.09;5019928;28;20031;-80
2024/01/08 02:30:51;;;;;;;4.82;2.50;;;;;;;-1.64;100.00;99260.63;5016328;28;20181;-80
2024/01/08 02:33:16;;;;;;;3.28;1.90;;;;;;;-1.61;100.00;99271.00;5021405;28;20025;-79
2024/01/08 02:35:42;;;;;;;3.63;2.13;;;;;;;-1.65;100.00;99267.75;5033214;28;20053;-80
2024/01/08 02:38:07;;;;;;;4.25;2.72;;;;;;;-1.64;100.00;99261.47;5020080;28;20048;-80
2024/01/08 02:40:32;;;;;;;4.30;2.78;;;;;;;-1.73;100.00;99242.72;5035783;28;20065;-79
2024/01/08 02:42:58;;;;;;;4.63;2.65;;;;;;;-1.59;100.00;99259.31;5016982;28;20111;-79
2024/01/08 02:45:23;;;;;;;3.60;2.30;;;;;;;-1.57;100.00;99262.72;5031215;28;20102;-79
2024/01/08 02:47:48;;;;;;;5.07;2.92;;;;;;;-1.61;100.00;99261.22;5034781;28;20450;-80
2024/01/08 02:50:14;;;;;;;5.85;2.78;;;;;;;-1.72;100.00;99252.41;5033164;28;20075;-80
2024/01/08 02:52:39;;;;;;;4.03;2.58;;;;;;;-1.66;100.00;99251.94;5038112;28;20033;-80
2024/01/08 02:55:05;;;;;;;4.10;2.70;;;;;;;-1.58;100.00;99270.75;5037313;28;20029;-80
2024/01/08 02:57:30;;;;;;;4.50;2.35;;;;;;;-1.57;100.00;99262.72;5033215;28;20033;-79
2024/01/08 02:59:56;;;;;;;5.03;2.50;;;;;;;-1.49;100.00;99269.22;5047482;28;20033;-80
2024/01/08 03:02:24;;;;;;;4.22;2.58;;;;;;;-1.48;100.00;99276.25;5048195;28;20063;-79
2024/01/08 03:04:49;;;;;;;4.90;3.05;;;;;;;-1.52;100.00;99277.41;5042093;28;20032;-79
2024/01/08 03:07:18;;;;;;;4.82;3.00;;;;;;;-1.63;100.00;99252.53;5065206;28;20013;-79
2024/01/08 03:09:44;;;;;;;4.43;2.47;;;;;;;-1.71;100.00;99254.91;5024796;28;20119;-80
2024/01/08 03:12:11;;;;;;;4.63;2.60;;;;;;;-1.53;100.00;99273.91;5024983;28;20458;-79
2024/01/08 03:14:36;;;;;;;4.07;2.13;;;;;;;-1.51;100.00;99273.81;5043653;28;20482;-80
2024/01/08 03:17:01;;;;;;;5.55;3.05;;;;;;;-1.60;100.00;99259.41;5034455;28;20061;-80
2024/01/08 03:19:27;;;;;;;5.90;3.40;;;;;;;-1.56;100.00;99260.91;5046120;28;20036;-80
2024/01/08 03:21:52;;;;;;;3.70;2.55;;;;;;;-1.43;100.00;99279.41;5024022;28;20067;-80
2024/01/08 03:24:17;;;;;;;5.45;2.38;;;;;;;-1.41;100.00;99288.09;5024043;28;20025;-80
2024/01/08 03:26:43;;;;;;;3.30;2.13;;;;;;;-1.58;100.00;99276.06;5040938;28;20060;-79
2024/01/08 03:29:08;;;;;;;3.30;2.15;;;;;;;-1.61;100.00;99261.22;5040819;28;20033;-79
2024/01/08 03:31:40;;;;;;;4.03;2.10;;;;;;;-1.68;100.00;99262.63;5020854;28;20025;-80
2024/01/08 03:34:05;;;;;;;3.78;2.28;;;;;;;-1.61;100.00;99282.44;5021708;28;20033;-79
2024/01/08 03:36:31;;;;;;;4.25;2.40;;;;;;;-1.56;100.00;99290.91;5050816;28;20037;-80
2024/01/08 03:38:56;;;;;;;6.47;2.50;;;;;;;-1.60;100.00;99289.47;5048409;28;20501;-80
2024/01/08 03:41:22;;;;;;;4.07;2.25;;;;;;;-1.58;100.00;99284.88;5039430;28;20045;-80
2024/01/08 03:43:47;;;;;;;4.25;2.47;;;;;;;-1.62;100.00;99283.44;5055205;28;20013;-80
2024/01/08 03:46:12;;;;;;;4.50;2.38;;;;;;;-1.68;100.00;99289.16;5057633;28;20039;-80
2024/01/08 03:48:38;;;;;;;4.45;2.78;;;;;;;-1.72;100.00;99284.22;5030264;28;20096;-79
2024/01/08 03:51:03;;;;;;;3.88;2.40;;;;;;;-1.74;100.00;99286.97;5051785;28;20167;-80
2024/01/08 03:53:29;;;;;;;4.70;2.50;;;;;;;-1.87;100.00;99267.63;5050738;28;20029;-80
2024/01/08 03:55:54;;;;;;;4.40;2.50;;;;;;;-1.73;100.00;99285.16;5054761;28;20036;-80
2024/01/08 03:58:19;;;;;;;4.45;2.42;;;;;;;-1.67;100.00;99290.88;5036826;28;20030;-79
2024/01/08 04:00:45;;;;;;;5.32;2.42;;;;;;;-1.75;100.00;99281.81;5029726;28;20030;-79
2024/01/08 04:03:10;;;;;;;3.50;2.03;;;;;;;-1.75;100.00;99280.00;5050817;28;20028;-80
2024/01/08 04:05:43;;;;;;;5.40;2.47;;;;;;;-1.62;100.00;99301.16;5025832;28;20087;-80
2024/01/08 04:08:09;;;;;;;4.22;2.20;;;;;;;-1.73;100.00;99293.13;5051597;22;20115;-59
2024/01/08 04:10:34;;;;;;;4.30;2.15;;;;;;;-1.74;100.00;99305.53;5045238;28;20111;-60
2024/01/08 04:13:00;;;;;;;4.53;2.20;;;;;;;-1.77;100.00;99303.97;5050547;28;20417;-60
2024/01/08 04:15:25;;;;;;;4.65;2.50;;;;;;;-1.79;100.00;99310.34;5051095;28;20033;-60
2024/01/08 04:17:50;;;;;;;4.32;2.17;;;;;;;-1.85;100.00;99310.81;5055668;28;20043;-60
2024/01/08 04:20:16;;;;;;;4.45;2.20;;;;;;;-1.89;100.00;99309.31;5048418;28;20028;-60
2024/01/08 04:22:45;;;;;;;6.85;2.05;;;;;;;-1.85;100.00;99314.28;5034821;28;20116;-60
2024/01/08 04:25:10;;;;;;;6.00;2.70;;;;;;;-1.89;100.00;99320.75;5046925;28;20024;-60
2024/01/08 04:27:37;;;;;;;4.75;2.42;;;;;;;-2.00;100.00;99303.00;5051708;28;20043;-59
2024/01/08 04:30:09;;;;;;;5.50;2.50;;;;;;;-1.93;100.00;99324.63;5046722;28;20025;-60
2024/01/08 04:32:35;;;;;;;4.75;2.22;;;;;;;-1.95;100.00;99323.88;5054210;28;20031;-60
2024/01/08 04:35:02;;;;;;;3.38;2.20;;;;;;;-1.91;100.00;99319.19;5049478;28;20229;-60
2024/01/08 04:37:28;;;;;;;6.13;2.85;;;;;;;-1.93;100.00;99326.44;5032885;28;20025;-60
2024/01/08 04:39:54;;;;;;;6.07;2.40;;;;;;;-2.00;100.00;99326.84;5044369;28;20039;-60
2024/01/08 04:42:19;;;;;;;5.07;2.60;;;;;;;-1.96;100.00;99326.66;5042874;28;20426;-60
2024/01/08 04:44:45;;;;;;;6.07;2.40;;;;;;;-2.09;100.00;99314.28;5049618;28;20013;-60
2024/01/08 04:47:11;;;;;;;4.55;2.10;;;;;;;-1.98;100.00;99334.72;5049802;28;20023;-59
2024/01/08 04:49:36;;;;;;;4.55;2.67;;;;;;;-2.00;100.00;99321.53;5051172;28;20033;-60
2024/01/08 04:52:04;;;;;;;5.35;2.53;;;;;;;-1.92;100.00;99336.91;5051709;28;20389;-61
2024/01/08 04:54:29;;;;;;;4.47;2.50;;;;;;;-1.89;100.00;99334.03;5053246;28;20528;-60
2024/01/08 04:56:55;;;;;;;6.22;2.60;;;;;;;-1.87;100.00;99329.47;5034524;28;20116;-60
2024/01/08 04:59:22;;;;;;;4.10;2.25;;;;;;;-1.95;100.00;99333.63;5052372;28;20036;-61
2024/01/08 05:01:49;;;;;;;4.50;2.20;;;;;;;-1.91;100.00;99338.63;5045730;28;20021;-59
2024/01/08 05:04:14;;;;;;;4.75;2.53;;;;;;;-1.90;100.00;99339.47;5051421;28;20519;-60
2024/01/08 05:06:39;;;;;;;5.13;2.60;;;;;;;-2.01;100.00;99338.44;5050747;28;20120;-60
2024/01/08 05:09:05;;;;;;;4.22;2.42;;;;;;;-1.99;100.00;99330.38;5051203;28;20032;-60
2024/01/08 05:11:30;;;;;;;4.50;2.53;;;;;;;-1.94;100.00;99340.63;5048035;28;20358;-60
2024/01/08 05:13:56;;;;;;;4.82;3.00;;;;;;;-2.00;100.00;99321.53;5033473;28;20104;-60
2024/01/08 05:16:21;;;;;;;4.32;2.47;;;;;;;-1.94;100.00;99335.31;5047936;28;20035;-60
2024/01/08 05:18:46;;;;;;;5.20;2.70;;;;;;;-1.99;100.00;99333.88;5052747;28;20020;-57
2024/01/08 05:21:15;;;;;;;3.78;2.45;;;;;;;-1.92;100.00;99341.38;5051248;28;20353;-57
2024/01/08 05:23:41;;;;;;;3.70;2.50;;;;;;;-1.95;100.00;99341.59;5056962;28;20086;-57
2024/01/08 05:26:06;;;;;;;4.70;2.45;;;;;;;-1.99;100.00;99339.16;5050905;28;20104;-57
2024/01/08 05:28:32;;;;;;;7.22;3.33;;;;;;;-1.96;100.00;99345.22;5050555;28;20025;-57
2024/01/08 05:30:57;;;;;;;7.68;3.00;;;;;;;-1.94;100.00;99346.78;5052362;28;20064;-57
2024/01/08 05:33:23;;;;;;;6.85;3.30;;;;;;;-1.88;100.00;99337.56;5055668;28;20071;-57
2024/01/08 05:35:48;;;;;;;10.48;2.85;;;;;;;-1.89;100.00;99347.28;5046099;28;20103;-57
2024/01/08 05:38:13;;;;;;;5.22;2.67;;;;;;;-1.92;100.00;99352.81;5048901;28;20082;-57
2024/01/08 05:40:39;;;;;;;6.63;2.95;;;;;;;-1.91;100.00;99345.69;5052827;28;20104;-57
2024/01/08 05:43:05;;;;;;;5.30;3.20;;;;;;;-1.98;100.00;99342.66;5050680;28;20025;-58
2024/01/08 05:45:30;;;;;;;7.50;3.22;;;;;;;-1.91;100.00;99348.34;5044503;28;20476;-57
2024/01/08 05:47:56;;;;;;;4.63;2.47;;;;;;;-1.93;100.00;99350.28;5054225;28;20056;-63
2024/01/08 05:50:25;;;;;;;5.88;3.15;;;;;;;-1.91;100.00;99340.41;5048598;28;20492;-60
2024/01/08 05:52:52;;;;;;;5.35;3.10;;;;;;;-1.90;100.00;99342.13;5035894;22;20136;-60
2024/01/08 05:55:18;;;;;;;5.25;2.95;;;;;;;-1.95;100.00;99346.91;5046466;28;20031;-61
2024/01/08 05:57:44;;;;;;;8.68;3.38;;;;;;;-1.96;100.00;99340.75;5054983;28;20136;-61
2024/01/08 06:00:10;;;;;;;6.93;3.42;;;;;;;-1.94;100.00;99349.41;5045885;28;20104;-62
2024/01/08 06:02:36;;;;;;;8.13;3.40;;;;;;;-1.88;100.00;99348.16;5051652;28;20024;-62
2024/01/08 06:05:01;;;;;;;6.80;3.38;;;;;;;-1.93;100.00;99351.13;5045094;28;20091;-59
2024/01/08 06:07:26;;;;;;;8.73;3.67;;;;;;;-1.93;100.00;99343.19;5045893;28;20029;-60
2024/01/08 06:09:52;;;;;;;9.95;3.85;;;;;;;-1.90;100.00;99352.72;5046268;28;20087;-61
2024/01/08 06:12:19;;;;;;;5.70;3.00;;;;;;;-1.98;100.00;99356.75;5054222;28;20104;-61
2024/01/08 06:14:44;;;;;;;8.60;4.05;;;;;;;-1.93;100.00;99360.91;5053240;28;20044;-61
2024/01/08 06:17:10;;;;;;;10.07;4.18;;;;;;;-1.97;100.00;99360.25;5047045;28;20457;-62
2024/01/08 06:19:36;;;;;;;7.80;3.25;;;;;;;-2.03;100.00;99324.44;5025962;28;20206;-61
2024/01/08 06:22:03;;;;;;;7.60;4.55;;;;;;;-1.89;100.00;99357.88;5022592;28;20044;-61
2024/01/08 06:24:28;;;;;;;8.50;4.30;;;;;;;-1.81;100.00;99360.88;5045687;28;20040;-61
2024/01/08 06:26:53;;;;;;;5.10;3.08;;;;;;;-1.88;100.00;99364.06;5040432;28;20435;-62
2024/01/08 06:29:19;;;;;;;14.70;9.45;;;;;;;-1.77;100.00;99366.78;5049399;28;20036;-61
2024/01/08 06:31:45;;;;;;;32.10;20.95;;;;;;;-1.86;100.00;99364.78;5046127;28;20083;-61
2024/01/08 06:34:10;;;;;;;6.68;3.33;;;;;;;-1.89;100.00;99362.34;5050519;28;20029;-61
2024/01/08 06:36:38;;;;;;;8.52;6.30;;;;;;;-1.92;100.00;99357.28;5039175;28;20036;-62
2024/01/08 06:39:04;;;;;;;7.00;4.47;;;;;;;-1.87;100.00;99361.28;5037894;28;20029;-61
2024/01/08 06:41:29;;;;;;;8.82;5.57;;;;;;;-1.90;100.00;99350.06;5056949;28;20078;-60
2024/01/08 06:43:56;;;;;;;8.23;5.00;;;;;;;-1.93;100.00;99358.25;5049603;28;20476;-61
2024/01/08 06:46:22;;;;;;;7.03;3.28;;;;;;;-1.88;100.00;99358.75;5053745;28;20119;-61
2024/01/08 06:48:47;;;;;;;5.65;3.08;;;;;;;-1.96;100.00;99354.00;5046775;28;20108;-61
2024/01/08 06:51:12;;;;;;;6.38;3.70;;;;;;;-1.97;100.00;99360.25;5058981;28;20028;-61
2024/01/08 06:53:37;;;;;;;4.68;2.78;;;;;;;-2.10;100.00;99344.38;5035876;28;20031;-60
2024/01/08 06:56:04;;;;;;;5.07;3.25;;;;;;;-1.95;100.00;99362.81;5049381;28;20032;-61
2024/01/08 06:58:29;;;;;;;5.10;3.65;;;;;;;-2.04;100.00;99354.56;5053943;28;20032;-61
2024/01/08 07:00:54;;;;;;;4.85;3.17;;;;;;;-1.90;100.00;99371.28;5049768;28;20040;-61
2024/01/08 07:03:20;;;;;;;5.40;3.08;;;;;;;-2.02;100.00;99350.00;5056447;28;20028;-61
2024/01/08 07:05:47;;;;;;;7.72;3.53;;;;;;;-1.90;100.00;99373.94;5056409;28;20763;-61
2024/01/08 07:08:12;;;;;;;9.18;3.20;;;;;;;-1.93;100.00;99372.34;5040100;28;20036;-60
2024/01/08 07:10:37;;;;;;;11.68;6.00;;;;;;;-2.01;100.00;99374.69;5057023;28;20029;-61
2024/01/08 07:13:03;;;;;;;5.15;2.97;;;;;;;-1.95;100.00;99374.25;5053526;28;20460;-61
2024/01/08 07:15:39;;;;;;;10.18;5.15;;;;;;;-1.94;100.00;99375.09;5059250;28;20063;-60
2024/01/08 07:18:04;;;;;;;10.75;5.70;;;;;;;-1.91;100.00;99385.47;5049848;28;20487;-60
2024/01/08 07:20:30;;;;;;;9.27;4.80;;;;;;;-1.88;100.00;99372.03;5057188;28;20032;-59
2024/01/08 07:22:55;;;;;;;10.98;5.57;;;;;;;-1.90;100.00;99372.13;5052829;28;20036;-60
2024/01/08 07:25:21;;;;;;;6.28;3.40;;;;;;;-1.87;100.00;99374.53;5053848;28;20086;-59
2024/01/08 07:27:46;;;;;;;13.98;5.28;;;;;;;-1.99;100.00;99363.03;5048673;28;20042;-60
2024/01/08 07:30:12;;;;;;;28.73;13.77;;;;;;;-1.85;100.00;99380.59;5054694;28;20205;-62
2024/01/08 07:32:37;;;;;;;14.38;9.25;;;;;;;-1.89;100.00;99372.97;5049752;28;20040;-61
2024/01/08 07:35:03;;;;;;;12.32;8.52;;;;;;;-1.86;100.00;99378.03;5052340;28;20038;-61
2024/01/08 07:37:28;;;;;;;9.18;3.78;;;;;;;-1.83;100.00;99389.28;5057740;28;20037;-61
2024/01/08 07:39:54;;;;;;;10.90;7.70;;;;;;;-1.74;100.00;99385.13;5056271;28;20100;-60
2024/01/08 07:42:19;;;;;;;9.60;7.60;;;;;;;-1.81;100.00;99370.59;5028896;28;20040;-61
2024/01/08 07:44:44;;;;;;;15.00;11.13;;;;;;;-1.79;100.00;99385.44;5049260;28;20032;-60
2024/01/08 07:47:10;;;;;;;11.25;7.80;;;;;;;-1.79;100.00;99380.16;5055379;28;20039;-61
2024/01/08 07:49:36;;;;;;;5.75;3.55;;;;;;;-1.72;100.00;99387.69;5043171;28;20315;-60
2024/01/08 07:52:02;;;;;;;5.95;3.05;;;;;;;-1.73;100.00;99394.75;5052223;28;20025;-60
2024/01/08 07:54:28;;;;;;;7.07;4.28;;;;;;;-1.65;100.00;99397.75;5051181;28;20033;-60
2024/01/08 07:56:53;;;;;;;4.50;2.72;;;;;;;-1.68;100.00;99399.75;5039125;28;20425;-59
2024/01/08 07:59:18;;;;;;;7.30;3.15;;;;;;;-1.70;100.00;99383.97;5052615;28;20047;-60
2024/01/08 08:01:44;;;;;;;6.45;2.72;;;;;;;-1.58;100.00;99406.06;5034676;28;20039;-60
2024/01/08 08:04:09;;;;;;;5.00;2.60;;;;;;;-1.62;100.00;99396.66;5052698;28;20528;-61
2024/01/08 08:06:34;;;;;;;4.70;2.58;;;;;;;-1.60;100.00;99410.63;5053935;28;20494;-59
2024/01/08 08:09:01;;;;;;;5.78;2.78;;;;;;;-1.62;100.00;99401.97;5047679;28;20060;-59
2024/01/08 08:11:27;;;;;;;5.55;2.70;;;;;;;-1.60;100.00;99406.22;5045521;28;20147;-60
2024/01/08 08:13:52;;;;;;;4.22;2.50;;;;;;;-1.69;100.00;99412.16;5048478;28;20028;-59
2024/01/08 08:16:18;;;;;;;3.90;2.53;;;;;;;-1.69;100.00;99414.81;5049144;28;20033;-60
2024/01/08 08:18:44;;;;;;;5.22;2.50;;;;;;;-1.73;100.00;99412.50;5048602;28;20095;-60
2024/01/08 08:21:10;;;;;;;5.65;2.75;;;;;;;-1.79;100.00;99419.09;5036747;28;20112;-60
2024/01/08 08:23:35;;;;;;;5.10;2.58;;;;;;;-1.87;100.00;99410.84;5052732;28;20107;-60
2024/01/08 08:26:02;;;;;;;4.30;2.45;;;;;;;-1.79;100.00;99414.63;5046739;28;20484;-59
2024/01/08 08:28:28;;;;;;;5.35;2.63;;;;;;;-1.74;100.00;99424.91;5044893;28;20354;-53
2024/01/08 08:30:53;;;;;;;3.83;2.28;;;;;;;-1.70;100.00;99428.19;5043203;28;20424;-54
2024/01/08 08:33:18;;;;;;;4.70;2.97;;;;;;;-1.72;100.00;99415.03;5046383;28;20033;-57
2024/01/08 08:35:44;;;;;;;7.45;3.50;;;;;;;-1.57;100.00;99429.84;5031094;28;20059;-57
2024/01/08 08:38:09;;;;;;;6.35;2.45;;;;;;;-1.51;100.00;99435.69;5046726;28;20037;-53
2024/01/08 08:40:35;;;;;;;5.32;2.60;;;;;;;-1.53;100.00;99429.63;5033402;28;20029;-53
2024/01/08 08:43:00;;;;;;;4.63;2.42;;;;;;;-1.53;100.00;99426.97;5046690;28;20100;-53
2024/01/08 08:45:25;;;;;;;4.60;2.70;;;;;;;-1.53;100.00;99433.13;5051062;28;20059;-53
2024/01/08 08:47:51;;;;;;;6.00;3.03;;;;;;;-1.50;100.00;99442.66;5054267;28;20029;-53
2024/01/08 08:50:17;;;;;;;6.38;3.80;;;;;;;-1.52;100.00;99447.22;5053307;28;20480;-53
2024/01/08 08:52:45;;;;;;;5.20;2.70;;;;;;;-1.47;100.00;99450.41;5053714;28;20051;-53
2024/01/08 08:55:10;;;;;;;4.15;2.33;;;;;;;-1.50;100.00;99448.81;5052014;28;20028;-53
2024/01/08 08:57:36;;;;;;;4.25;2.50;;;;;;;-1.52;100.00;99455.19;5059749;28;20024;-53
2024/01/08 09:00:02;;;;;;;5.47;2.97;;;;;;;-1.60;100.00;99453.97;5051135;28;20029;-53
2024/01/08 09:02:27;;;;;;;4.07;2.20;;;;;;;-1.53;100.00;99461.47;5049029;28;20085;-53
2024/01/08 09:04:53;;;;;;;4.88;2.80;;;;;;;-1.53;100.00;99458.81;5049350;28;20056;-53
2024/01/08 09:07:22;;;;;;;4.88;2.75;;;;;;;-1.56;100.00;99462.53;5048833;28;20469;-53
2024/01/08 09:09:50;;;;;;;3.45;2.03;;;;;;;-1.53;100.00;99462.31;5038974;28;20408;-53
2024/01/08 09:12:15;;;;;;;9.10;3.38;;;;;;;-1.44;100.00;99463.44;5046139;28;20064;-53
2024/01/08 09:14:41;;;;;;;6.43;2.92;;;;;;;-1.48;100.00;99462.00;5054442;28;20048;-53
2024/01/08 09:17:07;;;;;;;7.03;3.15;;;;;;;-1.31;100.00;99469.59;5049297;28;20358;-53
2024/01/08 09:19:35;;;;;;;4.95;2.70;;;;;;;-1.26;100.00;99470.06;5048086;28;20061;-52
2024/01/08 09:22:00;;;;;;;7.22;3.95;;;;;;;-1.23;100.00;99476.97;5057421;28;20024;-52
2024/01/08 09:24:25;;;;;;;5.13;2.92;;;;;;;-1.26;100.00;99477.19;5044287;28;20563;-52
2024/01/08 09:26:50;;;;;;;5.57;2.90;;;;;;;-1.23;100.00;99477.84;5053069;28;20029;-53
2024/01/08 09:29:16;;;;;;;4.32;2.33;;;;;;;-1.17;100.00;99484.50;5045594;28;20103;-53
2024/01/08 09:31:41;;;;;;;4.82;2.50;;;;;;;-1.18;100.00;99485.44;5046313;28;20107;-53
2024/01/08 09:34:06;;;;;;;7.05;2.72;;;;;;;-1.11;100.00;99484.88;5053555;28;20021;-52
2024/01/08 09:36:32;;;;;;;4.25;2.38;;;;;;;-1.28;100.00;99479.97;5050445;28;20032;-52
2024/01/08 09:38:57;;;;;;;4.80;2.40;;;;;;;-1.25;100.00;99495.69;5052422;28;20028;-53
2024/01/08 09:41:22;;;;;;;5.22;2.60;;;;;;;-1.23;100.00;99482.28;5047802;28;20037;-53
2024/01/08 09:43:48;;;;;;;5.35;2.67;;;;;;;-1.10;100.00;99491.06;5045439;28;20143;-53
2024/01/08 09:46:23;;;;;;;6.25;2.50;;;;;;;-1.14;100.00;99487.78;5047488;28;20068;-53
2024/01/08 09:48:49;;;;;;;7.20;3.58;;;;;;;-1.20;100.00;99490.88;5050617;28;20028;-53
2024/01/08 09:51:15;;;;;;;5.32;3.63;;;;;;;-1.09;100.00;99491.91;5047976;28;20341;-53
2024/01/08 09:53:40;;;;;;;5.18;2.70;;;;;;;-1.19;100.00;99471.31;5047643;28;20021;-53
2024/01/08 09:56:09;;;;;;;4.63;2.45;;;;;;;-1.16;100.00;99481.72;5048348;28;20022;-53
2024/01/08 09:58:34;;;;;;;5.68;3.20;;;;;;;-1.13;100.00;99493.94;5045387;28;20041;-53
2024/01/08 10:01:00;;;;;;;4.72;2.78;;;;;;;-1.02;100.00;99490.47;5042278;28;20029;-53
2024/01/08 10:03:26;;;;;;;5.32;3.15;;;;;;;-0.96;100.00;99490.03;5044324;28;20020;-53
2024/01/08 10:05:52;;;;;;;4.43;2.67;;;;;;;-0.88;100.00;99487.66;5044548;28;20025;-53
2024/01/08 10:08:17;;;;;;;5.68;2.75;;;;;;;-0.73;100.00;99486.53;5049269;28;20055;-53
2024/01/08 10:10:43;;;;;;;4.80;2.97;;;;;;;-0.71;100.00;99476.63;5042579;28;20120;-53
2024/01/08 10:13:11;;;;;;;6.28;3.35;;;;;;;-0.75;100.00;99483.13;5045601;28;20528;-53
2024/01/08 10:15:37;;;;;;;4.43;2.70;;;;;;;-0.89;100.00;99488.63;5046797;28;20384;-53
2024/01/08 10:18:08;;;;;;;6.85;3.50;;;;;;;-0.68;100.00;99484.38;5053346;28;20017;-52
2024/01/08 10:20:33;;;;;;;4.82;3.10;;;;;;;-0.68;100.00;99494.16;5050192;28;20535;-52
2024/01/08 10:23:06;;;;;;;5.10;3.20;;;;;;;-0.51;100.00;99487.56;5048042;28;20132;-53
2024/01/08 10:25:33;;;;;;;7.30;4.90;;;;;;;-0.61;100.00;99489.22;5049806;28;20417;-53
2024/01/08 10:27:59;;;;;;;5.57;3.33;;;;;;;-0.64;100.00;99478.81;5057072;28;20024;-53
2024/01/08 10:30:25;;;;;;;6.88;3.97;;;;;;;-0.57;100.00;99480.91;5042770;28;20029;-53
2024/01/08 10:32:51;;;;;;;6.65;3.40;;;;;;;-0.65;100.00;99477.13;5048084;28;20021;-53
2024/01/08 10:35:18;;;;;;;7.47;4.07;;;;;;;-0.69;100.00;99469.38;5044718;28;20029;-53
2024/01/08 10:37:47;;;;;;;7.18;3.30;;;;;;;-0.73;100.00;99486.53;5052689;28;20326;-53
2024/01/08 10:40:13;;;;;;;5.97;3.80;;;;;;;-0.72;100.00;99482.91;5040639;28;20029;-53
2024/01/08 10:42:41;;;;;;;7.53;4.20;;;;;;;-0.71;100.00;99481.09;5045416;28;20110;-53
2024/01/08 10:45:07;;;;;;;7.22;4.25;;;;;;;-0.63;100.00;99480.50;5047911;28;20021;-53
2024/01/08 10:47:36;;;;;;;6.25;2.92;;;;;;;-0.59;100.00;99477.50;5050013;28;20479;-53
2024/01/08 10:50:05;;;;;;;4.90;2.25;;;;;;;-0.56;100.00;99465.81;5047228;28;20021;-53
2024/01/08 10:52:33;;;;;;;7.07;4.70;;;;;;;-0.62;100.00;99463.63;5043335;28;20041;-53
2024/01/08 10:55:00;;;;;;;6.15;3.80;;;;;;;-0.72;100.00;99472.28;5046809;28;20743;-53
2024/01/08 10:57:43;;;;;;;5.28;2.78;;;;;;;0.68;100.00;99457.88;5040909;28;20033;-53
2024/01/08 11:00:10;;;;;;;5.93;2.88;;;;;;;0.63;100.00;99466.25;5045872;28;20052;-53
2024/01/08 11:02:40;;;;;;;7.05;4.35;;;;;;;0.70;100.00;99462.09;5049990;28;20031;-53
2024/01/08 11:05:06;;;;;;;8.38;4.80;;;;;;;0.75;97.55;99464.41;5049354;28;20190;-53
2024/01/08 11:07:36;;;;;;;7.68;3.88;;;;;;;0.96;96.93;99461.78;5052890;28;20114;-53
2024/01/08 11:10:03;;;;;;;4.55;2.70;;;;;;;1.12;93.11;99470.22;5046676;28;20035;-53
2024/01/08 11:12:30;;;;;;;5.93;3.63;;;;;;;1.65;88.49;99454.22;5057794;28;20118;-53
2024/01/08 11:15:03;;;;;;;4.90;3.28;;;;;;;1.46;84.76;99456.75;5054927;28;20021;-53
2024/01/08 11:17:28;;;;;;;5.05;2.90;;;;;;;1.04;85.32;99462.84;5049234;28;20028;-53